Anl Warragul — A8UL6 — position and weather

sailwx.info

Track history (hours):
 
Tides and Currents Weather Stations Pressure Air Temp Water Temp Dewpoint Dewpoint Depression Visibility Wind Speed Wind Dir Waves Ship Positions

Anl Warragul

Last reported at 2018-Jun-18 08:33 UTC. Time now 2018-Jun-18 09:09 UTC.
Position S 36°43' E 174°52'.

Length 262 m; draft 9.4 m.

Type: Cargo ship. MMSI: 636091912.

Date/timePositionNaut miles runAvg speedWind from/ knotsBaromVisibWave heightAir tempDewpointWater temp
2018-Jun-18 08:33S 36°43' E 174°52'2 9.3
2018-Jun-18 08:23S 36°44' E 174°51'3 8.3
2018-Jun-18 08:00S 36°46' E 174°49'4 7.7
2018-Jun-18 07:30S 36°50' E 174°48'1 1.6
2018-Jun-18 07:00S 36°51' E 174°47'0 0.0
2018-Jun-18 06:30S 36°51' E 174°47'0 0.0
2018-Jun-18 06:00S 36°51' E 174°47'0 0.0
2018-Jun-18 05:27S 36°51' E 174°47'0 0.0
2018-Jun-18 05:00S 36°50' E 174°47'0 0.1
2018-Jun-18 04:30S 36°51' E 174°47'0 0.0
2018-Jun-18 04:00S 36°51' E 174°47'0 0.0
2018-Jun-18 03:30S 36°51' E 174°47'0 0.0
2018-Jun-18 03:00S 36°51' E 174°47'0 0.0
2018-Jun-18 02:30S 36°50' E 174°47'0 0.0
2018-Jun-18 02:00S 36°51' E 174°47'0 0.0
2018-Jun-18 01:27S 36°51' E 174°47'0 0.0
2018-Jun-18 01:00S 36°50' E 174°47'0 0.0
2018-Jun-18 00:30S 36°51' E 174°47'0 0.0
2018-Jun-18 00:00S 36°51' E 174°47'0 0.0
2018-Jun-17 23:30S 36°51' E 174°47'0 0.0
2018-Jun-17 23:00S 36°51' E 174°47'0 0.0
2018-Jun-17 22:30S 36°51' E 174°47'0 0.0
2018-Jun-17 22:00S 36°51' E 174°47'0 0.0
2018-Jun-17 21:27S 36°51' E 174°47'0 0.0
2018-Jun-17 21:00S 36°51' E 174°47'0 0.0
2018-Jun-17 20:30S 36°51' E 174°47'0 0.0
2018-Jun-17 19:57S 36°51' E 174°47'0 0.0
2018-Jun-17 19:30S 36°51' E 174°47'0 0.0
2018-Jun-17 19:00S 36°50' E 174°47'1 1.0
2018-Jun-17 18:30S 36°50' E 174°48'2 4.6
2018-Jun-17 17:59S 36°49' E 174°50'5 9.8
2018-Jun-17 17:30S 36°44' E 174°51'4 8.8
2018-Jun-17 17:00S 36°40' E 174°54'4 8.4
2018-Jun-17 16:30S 36°37' E 174°57'4 8.1
2018-Jun-17 16:00S 36°35' E 175°01'4 8.1
2018-Jun-17 15:30S 36°32' E 175°05'4 8.0
2018-Jun-17 15:00S 36°30' E 175°09'5 8.3
2018-Jun-17 14:26S 36°27' E 175°14'4 9.6
2018-Jun-17 13:59S 36°24' E 175°18'4 8.9
2018-Jun-17 13:30S 36°23' E 175°23'2410.8
2018-Jun-17 11:16S 36°14' E 175°51'63319.0
2018-Jun-16 02:00S 28°42' W 175°24'89817.3 090 / 161017.2 24.013.226.0
2018-Jun-13 22:00S 17°30' W 164°36'43518.1 070 / 321016.5 27.019.332.0
2018-Jun-12 22:00S 12°06' W 159°36'   090 / 281012.0 29.024.833.0
2018-Jun-09 20:00N 03°48' W 145°18'44117.6 120 / 141014.1 27.022.631.0
2018-Jun-08 19:00N 09°18' W 140°24'   040 / 361015.0 27.022.632.0
Track history (hours):
 
Tides and Currents Weather Stations Pressure Air Temp Water Temp Dewpoint Dewpoint Depression Visibility Wind Speed Wind Dir Waves Ship Positions

Anl Warragul

Last reported at 2018-Jun-18 08:33 UTC. Time now 2018-Jun-18 09:09 UTC.
Position S 36°43' E 174°52'.

Length 262 m; draft 9.4 m.

Type: Cargo ship. MMSI: 636091912.

Date/timePositionNaut miles runAvg speedWind from/ knotsBaromVisibWave heightAir tempDewpointWater temp
2018-Jun-18 08:33S 36°43' E 174°52'2 9.3
2018-Jun-18 08:23S 36°44' E 174°51'3 8.3
2018-Jun-18 08:00S 36°46' E 174°49'4 7.7
2018-Jun-18 07:30S 36°50' E 174°48'1 1.6
2018-Jun-18 07:00S 36°51' E 174°47'0 0.0
2018-Jun-18 06:30S 36°51' E 174°47'0 0.0
2018-Jun-18 06:00S 36°51' E 174°47'0 0.0
2018-Jun-18 05:27S 36°51' E 174°47'0 0.0
2018-Jun-18 05:00S 36°50' E 174°47'0 0.1
2018-Jun-18 04:30S 36°51' E 174°47'0 0.0
2018-Jun-18 04:00S 36°51' E 174°47'0 0.0
2018-Jun-18 03:30S 36°51' E 174°47'0 0.0
2018-Jun-18 03:00S 36°51' E 174°47'0 0.0
2018-Jun-18 02:30S 36°50' E 174°47'0 0.0
2018-Jun-18 02:00S 36°51' E 174°47'0 0.0
2018-Jun-18 01:27S 36°51' E 174°47'0 0.0
2018-Jun-18 01:00S 36°50' E 174°47'0 0.0
2018-Jun-18 00:30S 36°51' E 174°47'0 0.0
2018-Jun-18 00:00S 36°51' E 174°47'0 0.0
2018-Jun-17 23:30S 36°51' E 174°47'0 0.0
2018-Jun-17 23:00S 36°51' E 174°47'0 0.0
2018-Jun-17 22:30S 36°51' E 174°47'0 0.0
2018-Jun-17 22:00S 36°51' E 174°47'0 0.0
2018-Jun-17 21:27S 36°51' E 174°47'0 0.0
2018-Jun-17 21:00S 36°51' E 174°47'0 0.0
2018-Jun-17 20:30S 36°51' E 174°47'0 0.0
2018-Jun-17 19:57S 36°51' E 174°47'0 0.0
2018-Jun-17 19:30S 36°51' E 174°47'0 0.0
2018-Jun-17 19:00S 36°50' E 174°47'1 1.0
2018-Jun-17 18:30S 36°50' E 174°48'2 4.6
2018-Jun-17 17:59S 36°49' E 174°50'5 9.8
2018-Jun-17 17:30S 36°44' E 174°51'4 8.8
2018-Jun-17 17:00S 36°40' E 174°54'4 8.4
2018-Jun-17 16:30S 36°37' E 174°57'4 8.1
2018-Jun-17 16:00S 36°35' E 175°01'4 8.1
2018-Jun-17 15:30S 36°32' E 175°05'4 8.0
2018-Jun-17 15:00S 36°30' E 175°09'5 8.3
2018-Jun-17 14:26S 36°27' E 175°14'4 9.6
2018-Jun-17 13:59S 36°24' E 175°18'4 8.9
2018-Jun-17 13:30S 36°23' E 175°23'2410.8
2018-Jun-17 11:16S 36°14' E 175°51'63319.0
2018-Jun-16 02:00S 28°42' W 175°24'89817.3 090 / 161017.2 24.013.226.0
2018-Jun-13 22:00S 17°30' W 164°36'43518.1 070 / 321016.5 27.019.332.0
2018-Jun-12 22:00S 12°06' W 159°36'   090 / 281012.0 29.024.833.0
2018-Jun-09 20:00N 03°48' W 145°18'44117.6 120 / 141014.1 27.022.631.0
2018-Jun-08 19:00N 09°18' W 140°24'   040 / 361015.0 27.022.632.0

Dump ship's entire track history